Time;durP1;ratioP1;P1;durP2;ratioP2;P2;SDS_P1;SDS_P2;PMS_P1;PMS_P2;Temp;Humidity;BMP_temperature;BMP_pressure;BME280_temperature;BME280_humidity;BME280_pressure;Samples;Min_cycle;Max_cycle;Signal;HPM_P1;HPM_P2
2021/05/01 00:00:48;;;;;;;2.67;1.88;;;8.60;88.90;;;;;;5035215;28;20057;-72
2021/05/01 00:03:13;;;;;;;3.03;2.03;;;8.60;88.90;;;;;;5035041;28;20103;-73
2021/05/01 00:05:39;;;;;;;3.17;2.08;;;8.60;88.90;;;;;;5035069;28;20025;-72
2021/05/01 00:08:04;;;;;;;2.53;1.80;;;8.50;88.90;;;;;;5035200;28;20022;-73
2021/05/01 00:10:30;;;;;;;2.65;2.00;;;8.50;88.90;;;;;;5035051;28;20025;-72
2021/05/01 00:12:56;;;;;;;2.10;1.77;;;8.50;89.00;;;;;;5034947;28;20035;-72
2021/05/01 00:15:22;;;;;;;2.08;1.88;;;8.50;88.90;;;;;;5034449;28;20055;-73
2021/05/01 00:17:48;;;;;;;2.17;1.95;;;8.50;88.90;;;;;;5034605;28;20057;-72
2021/05/01 00:20:14;;;;;;;1.70;1.35;;;8.50;88.90;;;;;;5035076;28;20025;-73
2021/05/01 00:22:39;;;;;;;2.75;1.83;;;8.50;88.80;;;;;;5034819;28;20052;-72
2021/05/01 00:25:06;;;;;;;2.88;2.60;;;8.50;88.80;;;;;;5034855;28;20018;-73
2021/05/01 00:27:31;;;;;;;2.83;2.22;;;8.50;88.60;;;;;;5034665;28;20596;-73
2021/05/01 00:29:57;;;;;;;3.50;2.25;;;8.50;88.70;;;;;;5034331;28;20029;-73
2021/05/01 00:32:22;;;;;;;4.70;3.25;;;8.50;88.70;;;;;;5034552;28;20033;-73
2021/05/01 00:34:48;;;;;;;4.13;2.53;;;8.40;88.80;;;;;;5034630;28;20026;-73
2021/05/01 00:37:13;;;;;;;3.45;2.42;;;8.30;88.90;;;;;;5034693;28;20048;-73
2021/05/01 00:39:39;;;;;;;3.45;2.55;;;8.30;89.10;;;;;;5034443;28;20041;-73
2021/05/01 00:42:04;;;;;;;3.35;2.40;;;8.20;89.10;;;;;;5034542;28;20029;-73
2021/05/01 00:44:30;;;;;;;4.50;3.08;;;8.20;89.30;;;;;;5016391;28;20029;-73
2021/05/01 00:46:55;;;;;;;3.50;2.63;;;8.20;89.30;;;;;;5034378;28;20033;-73
2021/05/01 00:49:21;;;;;;;3.33;2.25;;;8.20;89.30;;;;;;5034407;28;20469;-73
2021/05/01 00:51:46;;;;;;;4.78;3.03;;;8.20;89.20;;;;;;5034344;28;20021;-73
2021/05/01 00:54:12;;;;;;;3.08;2.00;;;8.10;89.10;;;;;;5034120;28;20420;-73
2021/05/01 00:56:38;;;;;;;3.05;2.08;;;8.10;89.20;;;;;;5034277;28;20482;-73
2021/05/01 00:59:03;;;;;;;3.53;2.20;;;8.20;89.10;;;;;;5033848;28;20096;-73
2021/05/01 01:01:30;;;;;;;3.30;2.17;;;8.20;88.90;;;;;;5034144;28;20389;-73
2021/05/01 01:03:55;;;;;;;2.67;1.98;;;8.20;89.50;;;;;;5034143;28;20017;-73
2021/05/01 01:06:21;;;;;;;3.50;2.50;;;8.20;88.90;;;;;;5034086;28;20080;-73
2021/05/01 01:08:47;;;;;;;3.60;2.83;;;8.20;88.80;;;;;;5034044;28;20363;-73
2021/05/01 01:11:13;;;;;;;3.58;2.42;;;8.20;88.80;;;;;;5033795;28;20105;-73
2021/05/01 01:13:39;;;;;;;3.28;2.90;;;8.20;88.80;;;;;;5015655;28;20481;-73
2021/05/01 01:16:05;;;;;;;3.55;3.00;;;8.10;88.80;;;;;;5033768;28;20082;-73
2021/05/01 01:18:32;;;;;;;3.40;2.80;;;8.10;89.00;;;;;;5034083;28;20386;-73
2021/05/01 01:21:00;;;;;;;2.83;2.60;;;8.10;89.00;;;;;;5033815;28;20022;-73
2021/05/01 01:23:27;;;;;;;4.18;2.58;;;8.10;89.00;;;;;;5033731;28;20025;-73
2021/05/01 01:25:53;;;;;;;2.85;2.28;;;8.00;89.00;;;;;;5033744;28;20517;-73
2021/05/01 01:28:19;;;;;;;3.47;2.55;;;8.00;89.10;;;;;;5033105;28;20151;-74
2021/05/01 01:30:44;;;;;;;3.70;2.67;;;8.00;89.10;;;;;;5033911;28;20021;-74
2021/05/01 01:33:11;;;;;;;3.00;2.28;;;8.00;89.10;;;;;;5033498;28;20096;-73
2021/05/01 01:35:38;;;;;;;4.18;2.85;;;7.90;89.10;;;;;;5015895;28;20026;-73
2021/05/01 01:38:04;;;;;;;4.40;2.60;;;7.90;89.70;;;;;;5033509;28;20120;-73
2021/05/01 01:40:31;;;;;;;3.47;2.83;;;7.90;89.10;;;;;;5033626;28;20044;-73
2021/05/01 01:42:56;;;;;;;3.15;2.55;;;7.90;89.10;;;;;;5032947;28;20026;-73
2021/05/01 01:45:24;;;;;;;2.75;2.15;;;7.90;89.10;;;;;;5033431;28;20385;-73
2021/05/01 01:47:50;;;;;;;3.33;2.22;;;7.90;89.10;;;;;;5033315;28;20091;-74
2021/05/01 01:50:18;;;;;;;2.95;1.95;;;7.90;89.00;;;;;;5033430;28;20402;-74
2021/05/01 01:52:44;;;;;;;2.75;2.10;;;7.90;89.00;;;;;;5033347;28;20482;-73
2021/05/01 01:55:12;;;;;;;2.67;2.20;;;7.90;89.00;;;;;;5033353;28;20105;-73
2021/05/01 01:57:38;;;;;;;3.72;2.55;;;7.90;89.00;;;;;;5032753;28;20034;-73
2021/05/01 02:00:14;;;;;;;3.67;2.58;;;7.90;88.90;;;;;;5033137;28;20073;-74
2021/05/01 02:02:40;;;;;;;3.70;2.30;;;7.90;88.80;;;;;;5033032;28;20420;-74
2021/05/01 02:05:07;;;;;;;2.35;2.15;;;7.80;88.90;;;;;;5033252;28;20025;-73
2021/05/01 02:07:33;;;;;;;3.95;2.47;;;7.80;89.00;;;;;;5033095;28;20051;-74
2021/05/01 02:09:58;;;;;;;2.83;1.83;;;7.80;89.00;;;;;;5033128;28;20479;-73
2021/05/01 02:12:24;;;;;;;3.10;2.00;;;7.70;89.00;;;;;;5032474;28;20029;-73
2021/05/01 02:14:49;;;;;;;2.65;2.22;;;7.70;89.00;;;;;;5033140;28;20021;-73
2021/05/01 02:17:15;;;;;;;2.67;2.03;;;7.70;89.00;;;;;;5032852;28;20041;-73
2021/05/01 02:19:40;;;;;;;2.58;1.98;;;7.60;89.00;;;;;;5033125;28;20022;-74
2021/05/01 02:22:06;;;;;;;3.05;2.15;;;7.60;89.00;;;;;;5033019;28;20061;-73
2021/05/01 02:24:31;;;;;;;2.85;1.90;;;7.60;89.10;;;;;;5034899;28;20021;-73
2021/05/01 02:26:57;;;;;;;2.53;2.20;;;7.60;89.20;;;;;;5036659;28;20377;-73
2021/05/01 02:29:22;;;;;;;3.35;2.30;;;7.50;89.30;;;;;;5036955;28;20548;-73
2021/05/01 02:31:48;;;;;;;2.42;1.83;;;7.40;89.40;;;;;;5037163;28;20025;-73
2021/05/01 02:34:14;;;;;;;2.42;1.83;;;7.50;89.50;;;;;;5037035;28;20500;-74
2021/05/01 02:36:39;;;;;;;2.97;2.08;;;7.40;89.40;;;;;;5036851;28;20432;-74
2021/05/01 02:39:05;;;;;;;3.05;2.05;;;7.40;89.40;;;;;;5036637;28;20049;-73
2021/05/01 02:41:32;;;;;;;2.47;1.95;;;7.40;90.00;;;;;;5036175;28;20462;-73
2021/05/01 02:43:57;;;;;;;3.72;2.03;;;7.30;89.40;;;;;;5036841;28;20029;-74
2021/05/01 02:46:23;;;;;;;2.05;1.85;;;7.40;89.40;;;;;;5018909;28;20037;-73
2021/05/01 02:48:48;;;;;;;2.35;1.60;;;7.30;89.30;;;;;;5036706;28;20022;-73
2021/05/01 02:51:14;;;;;;;2.08;1.88;;;7.30;89.40;;;;;;5036739;28;20018;-74
2021/05/01 02:53:39;;;;;;;2.50;1.70;;;7.30;89.40;;;;;;5036480;28;20432;-74
2021/05/01 02:56:05;;;;;;;2.50;1.60;;;7.20;89.40;;;;;;5035935;28;20116;-73
2021/05/01 02:58:31;;;;;;;2.58;1.98;;;7.20;89.50;;;;;;5036586;28;20017;-74
2021/05/01 03:00:56;;;;;;;2.10;1.90;;;7.10;89.40;;;;;;5036627;28;20033;-73
2021/05/01 03:03:22;;;;;;;2.67;1.75;;;7.10;89.50;;;;;;5036445;28;20025;-73
2021/05/01 03:05:47;;;;;;;2.13;1.55;;;7.10;89.50;;;;;;5036419;28;20029;-74
2021/05/01 03:08:13;;;;;;;2.83;2.10;;;7.10;89.50;;;;;;5036379;28;20032;-74
2021/05/01 03:10:38;;;;;;;3.22;2.25;;;7.10;89.60;;;;;;5035768;28;20052;-74
2021/05/01 03:13:04;;;;;;;2.42;1.95;;;7.10;89.50;;;;;;5036194;28;20437;-74
2021/05/01 03:15:29;;;;;;;2.47;1.80;;;7.10;89.50;;;;;;5036139;28;20462;-74
2021/05/01 03:17:56;;;;;;;3.33;1.85;;;7.00;89.60;;;;;;5036146;28;20108;-73
2021/05/01 03:20:21;;;;;;;4.10;1.70;;;6.90;89.60;;;;;;5035942;28;20021;-74
2021/05/01 03:22:48;;;;;;;2.97;1.88;;;6.90;89.80;;;;;;5036086;28;20025;-73
2021/05/01 03:25:14;;;;;;;2.80;1.92;;;6.80;89.90;;;;;;5035470;28;20037;-74
2021/05/01 03:27:40;;;;;;;2.95;2.15;;;6.80;90.20;;;;;;5035965;28;20018;-74
2021/05/01 03:30:10;;;;;;;2.38;1.67;;;6.70;90.00;;;;;;5035988;28;20032;-74
2021/05/01 03:32:36;;;;;;;2.80;1.80;;;6.70;90.00;;;;;;5035861;28;20033;-74
2021/05/01 03:35:03;;;;;;;2.50;2.05;;;6.60;90.00;;;;;;5035315;28;20020;-73
2021/05/01 03:37:29;;;;;;;2.92;1.80;;;6.60;90.00;;;;;;5035735;28;20454;-74
2021/05/01 03:39:54;;;;;;;2.55;1.60;;;6.60;90.00;;;;;;5035093;28;20130;-73
2021/05/01 03:42:20;;;;;;;3.50;2.00;;;6.50;89.90;;;;;;5035710;28;20493;-73
2021/05/01 03:44:46;;;;;;;2.80;2.10;;;6.50;90.00;;;;;;5035695;28;20474;-74
2021/05/01 03:47:11;;;;;;;2.20;1.73;;;6.50;90.00;;;;;;5017794;28;20468;-74
2021/05/01 03:49:37;;;;;;;2.88;2.42;;;6.40;90.00;;;;;;5035515;28;20030;-74
2021/05/01 03:52:03;;;;;;;2.20;1.80;;;6.40;90.00;;;;;;5035626;28;20469;-74
2021/05/01 03:54:29;;;;;;;3.65;2.45;;;6.40;90.00;;;;;;5035004;28;20026;-73
2021/05/01 03:56:55;;;;;;;3.55;2.80;;;6.30;90.00;;;;;;5017495;28;20095;-73
2021/05/01 03:59:20;;;;;;;2.17;1.80;;;6.30;90.00;;;;;;5035459;28;20466;-73
2021/05/01 04:01:46;;;;;;;2.40;2.13;;;6.30;90.00;;;;;;5035431;28;20040;-73
2021/05/01 04:04:12;;;;;;;1.77;1.58;;;6.30;90.00;;;;;;5035248;28;20366;-73
2021/05/01 04:06:38;;;;;;;2.10;1.83;;;6.20;90.00;;;;;;5035188;28;20067;-74
2021/05/01 04:09:05;;;;;;;2.67;1.88;;;6.20;90.10;;;;;;5034622;28;20060;-73
2021/05/01 04:11:30;;;;;;;3.08;1.88;;;6.20;90.10;;;;;;5035105;28;20029;-73
2021/05/01 04:13:56;;;;;;;2.60;1.52;;;6.10;90.00;;;;;;5035166;28;20026;-73
2021/05/01 04:16:21;;;;;;;2.58;2.03;;;6.10;90.00;;;;;;5035086;28;20493;-74
2021/05/01 04:18:47;;;;;;;2.90;2.00;;;6.10;90.00;;;;;;5035038;28;20014;-73
2021/05/01 04:21:14;;;;;;;1.83;1.58;;;6.10;90.00;;;;;;5017209;28;20478;-73
2021/05/01 04:23:40;;;;;;;2.58;1.80;;;6.10;90.00;;;;;;5034532;28;20425;-74
2021/05/01 04:26:05;;;;;;;2.25;1.60;;;6.10;90.00;;;;;;5034916;28;20076;-73
2021/05/01 04:28:31;;;;;;;2.38;1.85;;;6.10;89.80;;;;;;5034878;28;20390;-74
2021/05/01 04:30:57;;;;;;;2.08;1.70;;;6.10;89.80;;;;;;5034798;28;20022;-73
2021/05/01 04:33:23;;;;;;;2.08;1.80;;;6.20;89.70;;;;;;5034729;28;20022;-73
2021/05/01 04:35:49;;;;;;;3.20;2.42;;;6.10;89.70;;;;;;5034594;28;20035;-74
2021/05/01 04:38:16;;;;;;;2.22;2.00;;;6.10;89.80;;;;;;5034328;28;20116;-73
2021/05/01 04:40:42;;;;;;;2.15;1.70;;;6.10;89.70;;;;;;5034690;28;20013;-74
2021/05/01 04:43:09;;;;;;;2.83;2.05;;;6.10;89.80;;;;;;5034632;28;20108;-73
2021/05/01 04:45:36;;;;;;;3.03;1.77;;;6.10;89.80;;;;;;5034454;28;20021;-74
2021/05/01 04:48:02;;;;;;;2.47;1.73;;;6.00;89.80;;;;;;5033604;28;20389;-73
2021/05/01 04:50:27;;;;;;;1.60;1.50;;;6.00;89.80;;;;;;5034385;28;20490;-73
2021/05/01 04:52:53;;;;;;;4.05;2.97;;;6.00;89.80;;;;;;5033842;28;20045;-73
2021/05/01 04:55:18;;;;;;;2.35;1.67;;;6.00;89.80;;;;;;5034333;28;20026;-73
2021/05/01 04:57:46;;;;;;;1.83;1.52;;;6.00;89.90;;;;;;5034239;28;20081;-73
2021/05/01 05:00:14;;;;;;;2.78;1.67;;;6.00;89.90;;;;;;5034369;28;20028;-73
2021/05/01 05:02:40;;;;;;;2.63;2.05;;;6.00;89.90;;;;;;5034213;28;20021;-73
2021/05/01 05:05:07;;;;;;;3.00;1.70;;;6.00;89.80;;;;;;5033948;28;20493;-73
2021/05/01 05:07:32;;;;;;;1.98;1.75;;;6.00;89.70;;;;;;5033645;28;20021;-73
2021/05/01 05:09:58;;;;;;;1.90;1.55;;;6.00;89.70;;;;;;5034143;28;20040;-73
2021/05/01 05:12:24;;;;;;;3.03;1.90;;;6.00;89.70;;;;;;5034067;28;20018;-73
2021/05/01 05:14:50;;;;;;;2.83;2.40;;;6.00;89.60;;;;;;5034033;28;20037;-73
2021/05/01 05:17:16;;;;;;;2.67;1.90;;;6.00;89.60;;;;;;5033725;28;20508;-74
2021/05/01 05:19:41;;;;;;;2.78;1.88;;;6.00;89.70;;;;;;5033958;28;20014;-73
2021/05/01 05:22:07;;;;;;;2.40;1.80;;;6.00;89.70;;;;;;5033378;28;20022;-73
2021/05/01 05:24:32;;;;;;;1.95;1.60;;;6.10;89.70;;;;;;5016057;28;20027;-73
2021/05/01 05:26:58;;;;;;;2.78;1.80;;;6.10;89.50;;;;;;5033734;28;20096;-73
2021/05/01 05:29:23;;;;;;;2.30;1.85;;;6.20;89.40;;;;;;5033823;28;20021;-74
2021/05/01 05:31:49;;;;;;;2.20;1.95;;;6.20;89.40;;;;;;5033639;28;20021;-73
2021/05/01 05:34:15;;;;;;;2.05;1.52;;;6.20;89.40;;;;;;5033492;28;20089;-73
2021/05/01 05:36:40;;;;;;;2.47;2.28;;;6.20;89.40;;;;;;5033058;28;20040;-74
2021/05/01 05:39:07;;;;;;;2.67;1.95;;;6.30;89.40;;;;;;5033308;28;20045;-73
2021/05/01 05:41:33;;;;;;;2.25;1.85;;;6.30;89.40;;;;;;5033603;28;20029;-73
2021/05/01 05:43:59;;;;;;;2.78;2.00;;;6.30;89.30;;;;;;5033528;28;20127;-73
2021/05/01 05:46:25;;;;;;;3.55;2.55;;;6.40;89.40;;;;;;5033429;28;20021;-73
2021/05/01 05:48:51;;;;;;;2.78;2.05;;;6.40;89.40;;;;;;5032874;28;20101;-73
2021/05/01 05:51:16;;;;;;;2.67;2.17;;;6.40;89.40;;;;;;5033341;28;20021;-73
2021/05/01 05:53:42;;;;;;;2.47;1.90;;;6.40;89.50;;;;;;5033589;28;20488;-73
2021/05/01 05:56:07;;;;;;;2.88;2.05;;;6.50;89.60;;;;;;5033129;28;20439;-73
2021/05/01 05:58:34;;;;;;;2.42;2.20;;;6.50;89.50;;;;;;5033068;28;20036;-73
2021/05/01 06:00:59;;;;;;;3.47;2.30;;;6.50;89.50;;;;;;5033293;28;20091;-73
2021/05/01 06:03:26;;;;;;;3.72;2.35;;;6.50;89.40;;;;;;5032745;28;20450;-73
2021/05/01 06:05:58;;;;;;;3.47;2.63;;;6.60;89.50;;;;;;5033243;28;20087;-73
2021/05/01 06:08:24;;;;;;;3.63;2.63;;;6.60;89.40;;;;;;5033093;28;20049;-73
2021/05/01 06:10:50;;;;;;;4.82;3.50;;;6.60;89.40;;;;;;5033062;28;20033;-73
2021/05/01 06:13:19;;;;;;;4.50;3.13;;;6.70;89.50;;;;;;5033025;28;20018;-73
2021/05/01 06:15:46;;;;;;;3.47;2.63;;;6.70;89.50;;;;;;5033066;28;20024;-74
2021/05/01 06:18:15;;;;;;;4.22;2.78;;;6.80;89.60;;;;;;5032581;28;20111;-71
2021/05/01 06:20:40;;;;;;;3.08;2.00;;;6.80;89.50;;;;;;5032911;28;20568;-72
2021/05/01 06:23:06;;;;;;;3.17;2.60;;;6.90;89.50;;;;;;5032836;28;20034;-72
2021/05/01 06:25:32;;;;;;;3.95;3.10;;;7.00;89.40;;;;;;5033011;28;20018;-72
2021/05/01 06:27:58;;;;;;;4.20;2.92;;;7.10;89.20;;;;;;5032956;28;20022;-72
2021/05/01 06:30:24;;;;;;;5.70;3.95;;;7.10;89.20;;;;;;5032815;28;20500;-72
2021/05/01 06:32:50;;;;;;;5.40;3.78;;;7.20;89.20;;;;;;5032445;28;20056;-72
2021/05/01 06:35:16;;;;;;;4.28;2.88;;;7.20;89.20;;;;;;5032793;28;20533;-72
2021/05/01 06:37:44;;;;;;;4.00;2.65;;;7.30;89.20;;;;;;5032833;28;20116;-73
2021/05/01 06:40:14;;;;;;;3.67;2.40;;;7.40;89.30;;;;;;5032591;28;20421;-73
2021/05/01 06:42:47;;;;;;;2.50;2.10;;;7.50;89.20;;;;;;5032847;28;20017;-73
2021/05/01 06:45:16;;;;;;;4.10;2.67;;;7.60;89.20;;;;;;5031509;28;20032;-72
2021/05/01 06:48:07;;;;;;;2.53;1.90;;;7.60;89.00;;;;;;5012170;28;20038;-72
2021/05/01 06:50:33;;;;;;;3.13;2.05;;;7.80;89.10;;;;;;5012602;28;20125;-72
2021/05/01 06:52:59;;;;;;;3.20;2.42;;;8.00;88.80;;;;;;5012930;28;20395;-71
2021/05/01 06:55:28;;;;;;;3.80;2.50;;;8.10;88.60;;;;;;5012962;28;20433;-71
2021/05/01 06:57:55;;;;;;;2.75;2.42;;;8.20;88.50;;;;;;5011609;28;20363;-72
2021/05/01 07:00:23;;;;;;;3.53;2.15;;;8.30;88.60;;;;;;5012907;28;20462;-71
2021/05/01 07:02:52;;;;;;;6.55;3.90;;;8.30;88.50;;;;;;5012490;28;20029;-71
2021/05/01 07:05:25;;;;;;;4.95;3.55;;;8.30;88.50;;;;;;5012791;28;20033;-72
2021/05/01 07:07:51;;;;;;;5.30;3.45;;;8.20;88.70;;;;;;5013061;28;20021;-71
2021/05/01 07:10:18;;;;;;;3.80;2.60;;;8.30;89.10;;;;;;5014138;28;20017;-71
2021/05/01 07:12:44;;;;;;;3.13;2.50;;;8.30;89.10;;;;;;5016482;28;20030;-71
2021/05/01 07:15:13;;;;;;;5.47;2.80;;;8.30;89.20;;;;;;5016259;28;20040;-72
2021/05/01 07:17:39;;;;;;;3.25;2.25;;;8.40;89.10;;;;;;5015800;28;20041;-72
2021/05/01 07:20:07;;;;;;;4.03;2.70;;;8.50;89.10;;;;;;5014989;28;20242;-71
2021/05/01 07:22:34;;;;;;;4.43;2.92;;;8.50;88.90;;;;;;5015855;28;20029;-72
2021/05/01 07:25:02;;;;;;;3.30;2.40;;;8.60;89.00;;;;;;5015306;28;20080;-72
2021/05/01 07:27:41;;;;;;;3.92;2.78;;;8.80;88.80;;;;;;5016155;28;20055;-72
2021/05/01 07:30:07;;;;;;;3.10;2.25;;;9.00;89.10;;;;;;5016149;28;20393;-71
2021/05/01 07:32:35;;;;;;;3.33;2.35;;;9.00;88.30;;;;;;5015467;28;20589;-72
2021/05/01 07:35:06;;;;;;;2.90;2.00;;;9.00;88.40;;;;;;5015802;28;20022;-72
2021/05/01 07:37:36;;;;;;;2.03;1.80;;;9.10;88.30;;;;;;5015749;28;20041;-72
2021/05/01 07:40:04;;;;;;;3.45;2.22;;;9.20;88.10;;;;;;5015698;28;20117;-72
2021/05/01 07:42:36;;;;;;;2.70;2.30;;;9.20;88.00;;;;;;5015768;28;20032;-71
2021/05/01 07:45:02;;;;;;;2.72;1.63;;;9.30;87.90;;;;;;5015168;28;20497;-71
2021/05/01 07:47:30;;;;;;;2.85;2.30;;;9.40;88.00;;;;;;5015794;28;20022;-70
2021/05/01 07:49:55;;;;;;;1.65;1.55;;;9.50;87.90;;;;;;5015735;28;20033;-70
2021/05/01 07:52:22;;;;;;;2.35;2.00;;;9.60;87.90;;;;;;5015695;28;20022;-70
2021/05/01 07:54:47;;;;;;;2.05;1.75;;;9.60;87.80;;;;;;5014336;28;20105;-69
2021/05/01 07:57:13;;;;;;;1.65;1.52;;;9.60;87.80;;;;;;5015638;28;20124;-70
2021/05/01 07:59:38;;;;;;;2.45;2.25;;;9.60;87.90;;;;;;5015059;28;20030;-70
2021/05/01 08:02:05;;;;;;;2.38;2.00;;;9.70;87.80;;;;;;5015516;28;20034;-70
2021/05/01 08:04:31;;;;;;;3.55;2.67;;;9.80;87.90;;;;;;5015610;28;20025;-70
2021/05/01 08:06:57;;;;;;;3.42;2.30;;;10.00;87.70;;;;;;5014252;28;20025;-70
2021/05/01 08:09:22;;;;;;;4.28;2.65;;;10.10;87.30;;;;;;5015588;28;20018;-70
2021/05/01 08:11:48;;;;;;;3.33;2.65;;;9.90;87.40;;;;;;5015343;28;20025;-70
2021/05/01 08:14:13;;;;;;;3.47;2.15;;;9.80;87.70;;;;;;5014982;28;20021;-70
2021/05/01 08:16:39;;;;;;;3.30;2.28;;;9.60;88.20;;;;;;5015215;28;20088;-70
2021/05/01 08:19:05;;;;;;;2.40;2.08;;;9.60;88.30;;;;;;5015287;28;20030;-70
2021/05/01 08:21:32;;;;;;;5.25;2.97;;;9.60;88.40;;;;;;5014037;28;20493;-70
2021/05/01 08:23:59;;;;;;;3.00;2.35;;;9.70;88.30;;;;;;5013893;28;20018;-70
2021/05/01 08:26:24;;;;;;;2.30;2.10;;;9.80;88.00;;;;;;5015147;28;20029;-70
2021/05/01 08:28:50;;;;;;;3.33;2.63;;;10.10;87.70;;;;;;5014558;28;20026;-69
2021/05/01 08:31:15;;;;;;;2.70;1.98;;;10.30;87.10;;;;;;5014868;28;20045;-70
2021/05/01 08:33:41;;;;;;;3.67;2.35;;;10.50;86.70;;;;;;5014945;28;20034;-70
2021/05/01 08:36:07;;;;;;;3.15;2.42;;;10.60;86.50;;;;;;5014869;28;20478;-70
2021/05/01 08:38:36;;;;;;;4.38;2.55;;;10.80;86.50;;;;;;5014653;28;20042;-70
2021/05/01 08:41:03;;;;;;;2.42;2.22;;;10.90;86.20;;;;;;5015012;28;20063;-70
2021/05/01 08:43:29;;;;;;;5.43;3.72;;;10.80;86.20;;;;;;5014344;28;20032;-70
2021/05/01 08:45:54;;;;;;;5.43;3.72;;;10.70;86.30;;;;;;5014706;28;20106;-70
2021/05/01 08:48:21;;;;;;;3.13;2.72;;;10.60;86.40;;;;;;5014901;28;20486;-70
2021/05/01 08:50:50;;;;;;;4.03;2.70;;;10.60;86.80;;;;;;5014770;28;20030;-71
2021/05/01 08:53:16;;;;;;;4.80;3.43;;;10.70;87.10;;;;;;5014724;28;20045;-70
2021/05/01 08:55:41;;;;;;;2.83;2.30;;;10.90;86.80;;;;;;5014411;28;20054;-71
2021/05/01 08:58:09;;;;;;;3.40;2.33;;;11.10;86.40;;;;;;5014107;28;20025;-71
2021/05/01 09:00:38;;;;;;;4.47;2.83;;;11.10;86.30;;;;;;5014411;28;20395;-70
2021/05/01 09:03:06;;;;;;;2.55;2.10;;;11.20;86.30;;;;;;5014618;28;20018;-71
2021/05/01 09:05:32;;;;;;;3.22;2.50;;;11.10;86.30;;;;;;4996708;28;20490;-71
2021/05/01 09:07:58;;;;;;;2.90;2.30;;;11.00;86.50;;;;;;5014292;28;20459;-71
2021/05/01 09:10:24;;;;;;;3.08;2.28;;;10.80;86.70;;;;;;5014161;28;20030;-70
2021/05/01 09:12:51;;;;;;;2.22;1.95;;;10.80;86.90;;;;;;5013641;28;20092;-71
2021/05/01 09:15:24;;;;;;;3.17;2.17;;;10.80;86.80;;;;;;5013994;28;20105;-71
2021/05/01 09:18:05;;;;;;;2.38;2.17;;;10.80;86.50;;;;;;5014081;28;20037;-71
2021/05/01 09:20:31;;;;;;;2.92;2.17;;;10.80;86.40;;;;;;5014112;28;20036;-70
2021/05/01 09:23:06;;;;;;;2.95;2.30;;;10.70;86.50;;;;;;5013942;28;20022;-71
2021/05/01 09:25:46;;;;;;;3.17;2.30;;;10.70;86.60;;;;;;5013983;28;20029;-71
2021/05/01 09:28:16;;;;;;;3.13;2.65;;;10.80;86.50;;;;;;5013569;28;20026;-71
2021/05/01 09:30:57;;;;;;;2.45;1.80;;;10.80;86.50;;;;;;4996534;28;20348;-71
2021/05/01 09:33:52;;;;;;;2.80;1.80;;;10.90;86.30;;;;;;5013616;28;20034;-71
2021/05/01 09:36:22;;;;;;;3.38;2.47;;;10.80;86.10;;;;;;5009894;28;20049;-71
2021/05/01 09:39:10;;;;;;;3.92;2.50;;;10.70;86.10;;;;;;5013359;28;20093;-70
2021/05/01 09:41:42;;;;;;;3.10;2.30;;;10.60;86.30;;;;;;5013232;28;20049;-71
2021/05/01 09:44:12;;;;;;;2.03;1.73;;;10.40;86.70;;;;;;5013658;28;20062;-71
2021/05/01 09:46:37;;;;;;;2.03;1.75;;;10.40;86.90;;;;;;5012369;28;20040;-71
2021/05/01 09:49:19;;;;;;;2.35;1.80;;;10.30;87.10;;;;;;5013489;28;20117;-70
2021/05/01 09:51:56;;;;;;;2.70;2.25;;;10.30;86.90;;;;;;5013722;28;20025;-70
2021/05/01 09:54:33;;;;;;;2.58;2.03;;;10.20;87.00;;;;;;5013605;28;20026;-71
2021/05/01 09:57:01;;;;;;;2.63;2.13;;;10.30;87.20;;;;;;5012967;28;20437;-71
2021/05/01 09:59:51;;;;;;;4.50;2.10;;;10.50;87.10;;;;;;5013467;28;20482;-71
2021/05/01 10:02:23;;;;;;;2.55;2.05;;;10.70;86.40;;;;;;5008158;28;20506;-71
2021/05/01 10:05:06;;;;;;;2.13;1.65;;;10.90;86.30;;;;;;5013554;28;20069;-71
2021/05/01 10:07:33;;;;;;;3.05;2.40;;;11.30;86.00;;;;;;5013638;28;20508;-71
2021/05/01 10:09:58;;;;;;;2.58;1.92;;;11.60;85.60;;;;;;5012785;28;20053;-71
2021/05/01 10:12:53;;;;;;;1.75;1.65;;;12.00;85.10;;;;;;5013543;28;20437;-71
2021/05/01 10:15:24;;;;;;;2.65;2.40;;;12.30;84.30;;;;;;5004601;28;20034;-71
2021/05/01 10:17:50;;;;;;;3.33;2.10;;;12.50;83.70;;;;;;5012973;28;20045;-70
2021/05/01 10:20:17;;;;;;;2.28;2.08;;;12.40;83.50;;;;;;5013307;28;20049;-70
2021/05/01 10:22:46;;;;;;;2.97;2.63;;;12.10;84.10;;;;;;4995602;28;20037;-71
2021/05/01 10:25:20;;;;;;;2.05;1.80;;;11.90;84.70;;;;;;5012963;28;20026;-71
2021/05/01 10:28:07;;;;;;;2.28;1.85;;;11.70;85.00;;;;;;5013182;28;20156;-71
2021/05/01 10:30:52;;;;;;;2.88;2.20;;;11.50;85.20;;;;;;5013186;28;20022;-70
2021/05/01 10:33:37;;;;;;;2.00;1.80;;;11.40;85.30;;;;;;5012957;28;20084;-70
2021/05/01 10:36:27;;;;;;;3.42;1.95;;;11.20;85.40;;;;;;5013051;28;20112;-71
2021/05/01 10:39:06;;;;;;;2.10;1.65;;;11.10;85.50;;;;;;5012540;28;20057;-70
2021/05/01 10:41:32;;;;;;;2.55;1.98;;;11.00;85.70;;;;;;5012882;28;20054;-71
2021/05/01 10:43:59;;;;;;;5.07;1.38;;;10.90;85.70;;;;;;5012987;28;20029;-70
2021/05/01 10:46:30;;;;;;;4.68;2.08;;;10.90;85.70;;;;;;5016267;28;20025;-71
2021/05/01 10:48:59;;;;;;;1.83;1.60;;;10.80;85.50;;;;;;5016909;28;20049;-71
2021/05/01 10:51:27;;;;;;;1.70;1.60;;;10.70;85.60;;;;;;5016911;28;20541;-70
2021/05/01 10:54:13;;;;;;;1.70;1.60;;;10.70;85.50;;;;;;5016354;28;20034;-71
2021/05/01 10:56:44;;;;;;;2.63;2.20;;;10.70;85.50;;;;;;5016692;28;20037;-71
2021/05/01 10:59:18;;;;;;;2.33;2.03;;;10.80;85.10;;;;;;5016734;28;20490;-70
2021/05/01 11:01:48;;;;;;;2.28;1.60;;;11.00;84.80;;;;;;5016728;28;20045;-70
2021/05/01 11:04:35;;;;;;;2.08;1.77;;;11.00;84.50;;;;;;5016625;28;20037;-71
2021/05/01 11:07:24;;;;;;;3.03;2.70;;;11.20;84.00;;;;;;5016409;28;20030;-71
2021/05/01 11:09:50;;;;;;;3.25;2.05;;;11.20;84.00;;;;;;5016166;28;20033;-71
2021/05/01 11:12:22;;;;;;;1.77;1.67;;;11.30;84.00;;;;;;5016403;28;20022;-71
2021/05/01 11:14:55;;;;;;;3.50;2.35;;;11.60;83.60;;;;;;5016424;28;20022;-71
2021/05/01 11:17:30;;;;;;;1.45;1.35;;;11.80;83.30;;;;;;5016378;28;20510;-71
2021/05/01 11:19:59;;;;;;;2.85;2.65;;;12.20;83.10;;;;;;5016301;28;20598;-71
2021/05/01 11:22:27;;;;;;;2.17;1.38;;;12.70;82.40;;;;;;5015791;28;20033;-71
2021/05/01 11:24:57;;;;;;;1.25;1.08;;;13.10;81.60;;;;;;5015649;28;20018;-71
2021/05/01 11:27:24;;;;;;;1.40;1.30;;;13.20;81.50;;;;;;5016190;28;20030;-71
2021/05/01 11:29:51;;;;;;;1.83;1.40;;;13.40;81.30;;;;;;5016070;28;20475;-71
2021/05/01 11:32:18;;;;;;;1.33;1.23;;;13.40;81.30;;;;;;5016250;28;20471;-71
2021/05/01 11:34:47;;;;;;;1.75;1.52;;;13.30;81.40;;;;;;5015918;28;20026;-71
2021/05/01 11:37:12;;;;;;;1.65;1.55;;;13.10;81.50;;;;;;4997721;28;20034;-71
2021/05/01 11:39:40;;;;;;;1.88;1.60;;;12.80;82.20;;;;;;5021075;28;20056;-72
2021/05/01 11:42:06;;;;;;;2.00;1.70;;;12.70;82.50;;;;;;5035622;28;20109;-71
2021/05/01 11:44:32;;;;;;;1.83;1.50;;;12.50;82.70;;;;;;5035284;28;20450;-71
2021/05/01 11:47:04;;;;;;;1.67;1.40;;;12.40;82.90;;;;;;5035628;28;20025;-72
2021/05/01 11:49:30;;;;;;;1.75;1.63;;;12.30;83.20;;;;;;5017634;28;20457;-71
2021/05/01 11:52:24;;;;;;;1.67;1.35;;;12.20;83.20;;;;;;5034675;28;20030;-71
2021/05/01 11:55:08;;;;;;;1.95;1.58;;;12.10;83.20;;;;;;5015669;28;20030;-71
2021/05/01 11:57:51;;;;;;;1.02;1.02;;;11.90;83.40;;;;;;5019090;28;20037;-71
2021/05/01 12:00:37;;;;;;;2.22;1.40;;;11.80;83.60;;;;;;5035350;28;20013;-71
2021/05/01 12:03:05;;;;;;;1.52;1.42;;;11.80;83.20;;;;;;5034032;28;20036;-71
2021/05/01 12:05:36;;;;;;;2.28;1.85;;;11.60;83.30;;;;;;5035327;28;20025;-71
2021/05/01 12:08:14;;;;;;;1.75;1.45;;;11.60;84.00;;;;;;5034251;28;20048;-71
2021/05/01 12:10:49;;;;;;;1.20;1.15;;;11.70;83.10;;;;;;5035052;28;20040;-71
2021/05/01 12:13:36;;;;;;;1.88;1.33;;;12.00;82.70;;;;;;5035159;28;20049;-71
2021/05/01 12:16:04;;;;;;;1.50;1.40;;;12.70;81.50;;;;;;5035102;28;20500;-70
2021/05/01 12:18:56;;;;;;;2.08;1.58;;;13.30;80.30;;;;;;5034958;28;20017;-71
2021/05/01 12:21:24;;;;;;;1.63;1.15;;;13.50;79.70;;;;;;5030597;28;20033;-71
2021/05/01 12:23:52;;;;;;;1.33;1.05;;;13.60;79.50;;;;;;5035020;28;20025;-71
2021/05/01 12:26:34;;;;;;;1.83;1.30;;;13.60;79.70;;;;;;5034939;28;20021;-71
2021/05/01 12:29:18;;;;;;;1.13;1.02;;;13.70;79.80;;;;;;5017130;28;20029;-71
2021/05/01 12:31:45;;;;;;;1.05;1.00;;;13.70;79.40;;;;;;5034640;28;20052;-71
2021/05/01 12:34:11;;;;;;;1.20;1.10;;;13.60;79.90;;;;;;5034302;28;20095;-70
2021/05/01 12:36:44;;;;;;;1.63;1.50;;;13.60;79.80;;;;;;5033464;28;20037;-70
2021/05/01 12:39:11;;;;;;;1.52;1.42;;;13.60;79.70;;;;;;5034556;28;20041;-70
2021/05/01 12:41:49;;;;;;;1.77;1.60;;;13.40;80.00;;;;;;5034678;28;20025;-71
2021/05/01 12:44:47;;;;;;;1.60;1.30;;;13.20;80.30;;;;;;5034507;28;20089;-71
2021/05/01 12:47:38;;;;;;;1.35;1.25;;;13.00;80.70;;;;;;5022595;28;20440;-70
2021/05/01 12:50:15;;;;;;;2.25;1.25;;;12.90;80.90;;;;;;5033984;28;20164;-71
2021/05/01 12:52:41;;;;;;;1.35;1.20;;;12.70;80.80;;;;;;5034453;28;20026;-71
2021/05/01 12:55:08;;;;;;;2.17;1.00;;;12.50;81.40;;;;;;5033115;28;20032;-70
2021/05/01 12:57:36;;;;;;;1.38;1.27;;;12.40;81.80;;;;;;5034117;28;20386;-71
2021/05/01 13:00:40;;;;;;;1.60;1.38;;;12.30;81.60;;;;;;5034125;28;20014;-71